Time;durP1;ratioP1;P1;durP2;ratioP2;P2;SDS_P1;SDS_P2;PMS_P1;PMS_P2;Temp;Humidity;BMP_temperature;BMP_pressure;BME280_temperature;BME280_humidity;BME280_pressure;Samples;Min_cycle;Max_cycle;Signal;HPM_P1;HPM_P2
2023/04/10 00:01:35;;;;;;;7.53;4.20;;;3.70;99.90;;;;;;5069865;28;20459;-75
2023/04/10 00:04:01;;;;;;;7.37;4.23;;;3.60;99.90;;;;;;5068701;28;20181;-77
2023/04/10 00:06:27;;;;;;;6.83;4.03;;;3.50;99.90;;;;;;5065512;28;20554;-76
2023/04/10 00:08:53;;;;;;;10.97;4.37;;;3.50;99.90;;;;;;5069474;28;20518;-78
2023/04/10 00:11:19;;;;;;;10.27;4.50;;;3.40;99.90;;;;;;5068598;28;21067;-76
2023/04/10 00:13:44;;;;;;;7.43;4.20;;;3.40;99.90;;;;;;5067738;28;20257;-74
2023/04/10 00:16:10;;;;;;;10.97;4.40;;;3.30;99.90;;;;;;5074359;28;20621;-77
2023/04/10 00:18:36;;;;;;;18.17;5.67;;;3.30;99.90;;;;;;5072602;28;20720;-74
2023/04/10 00:21:02;;;;;;;7.20;3.80;;;3.40;99.90;;;;;;5073239;28;20628;-75
2023/04/10 00:23:30;;;;;;;9.30;4.90;;;3.30;99.90;;;;;;5079347;28;20229;-76
2023/04/10 00:25:56;;;;;;;11.83;4.83;;;3.30;99.90;;;;;;5085126;28;20462;-79
2023/04/10 00:28:22;;;;;;;11.97;5.07;;;3.20;99.90;;;;;;5094055;28;20431;-82
2023/04/10 00:30:47;;;;;;;10.17;4.37;;;3.20;99.90;;;;;;5098285;28;20196;-82
2023/04/10 00:33:13;;;;;;;9.40;4.17;;;3.00;99.90;;;;;;5098265;28;20219;-80
2023/04/10 00:35:39;;;;;;;10.83;4.60;;;3.00;99.90;;;;;;5095943;28;20177;-83
2023/04/10 00:38:04;;;;;;;7.83;4.20;;;3.00;99.90;;;;;;5098583;28;20207;-82
2023/04/10 00:40:30;;;;;;;10.40;4.90;;;2.90;99.90;;;;;;5090750;28;20185;-79
2023/04/10 00:42:56;;;;;;;7.73;4.40;;;2.90;99.90;;;;;;5074658;28;20204;-76
2023/04/10 00:45:22;;;;;;;9.03;4.80;;;2.90;99.90;;;;;;5075676;28;20205;-79
2023/04/10 00:47:47;;;;;;;10.00;5.30;;;2.90;99.90;;;;;;5073477;28;20619;-77
2023/04/10 00:50:13;;;;;;;4.83;3.23;;;2.80;99.90;;;;;;5072914;28;20358;-75
2023/04/10 00:52:39;;;;;;;8.77;4.27;;;2.70;99.90;;;;;;5074283;28;20201;-76
2023/04/10 00:55:05;;;;;;;10.27;5.17;;;2.70;99.90;;;;;;5072552;28;20609;-76
2023/04/10 00:57:32;;;;;;;8.80;4.73;;;2.70;99.90;;;;;;5073073;28;20176;-75
2023/04/10 00:59:59;;;;;;;8.37;4.33;;;2.60;99.90;;;;;;5071891;28;20412;-76
2023/04/10 01:02:25;;;;;;;7.97;4.50;;;2.60;99.90;;;;;;5072479;28;20473;-77
2023/04/10 01:04:51;;;;;;;7.93;3.80;;;2.60;99.90;;;;;;5072739;28;20510;-77
2023/04/10 01:08:02;;;;;;;8.80;4.50;;;2.50;99.90;;;;;;5074074;28;21080;-76
2023/04/10 01:10:33;;;;;;;8.37;4.57;;;2.50;99.90;;;;;;5072450;28;20206;-77
2023/04/10 01:13:10;;;;;;;6.70;4.00;;;2.40;99.90;;;;;;5074092;28;20451;-75
2023/04/10 01:15:43;;;;;;;9.13;4.50;;;2.50;99.90;;;;;;5072965;28;20427;-79
2023/04/10 01:18:15;;;;;;;8.63;4.40;;;2.50;99.90;;;;;;5072897;28;20415;-75
2023/04/10 01:20:41;;;;;;;9.70;4.50;;;2.50;99.90;;;;;;5071708;28;20415;-75
2023/04/10 01:23:41;;;;;;;9.47;4.53;;;2.40;99.90;;;;;;5070450;28;21212;-76
2023/04/10 01:26:09;;;;;;;8.70;4.37;;;2.30;99.90;;;;;;5072776;28;20450;-76
2023/04/10 01:28:53;;;;;;;7.40;3.87;;;2.30;99.90;;;;;;5072562;28;20411;-75
2023/04/10 01:31:49;;;;;;;8.60;4.10;;;2.30;99.90;;;;;;5069684;28;20514;-79
2023/04/10 01:34:21;;;;;;;10.20;4.70;;;2.30;99.90;;;;;;5071074;28;20450;-75
2023/04/10 01:36:50;;;;;;;13.87;4.80;;;2.30;99.90;;;;;;5069739;28;20922;-75
2023/04/10 01:39:20;;;;;;;11.23;4.50;;;2.20;99.90;;;;;;5071439;28;20427;-79
2023/04/10 01:41:50;;;;;;;7.40;4.07;;;2.20;99.90;;;;;;5071799;28;20997;-75
2023/04/10 01:44:20;;;;;;;5.90;3.67;;;2.10;99.90;;;;;;5070722;28;20502;-78
2023/04/10 01:46:48;;;;;;;7.33;4.10;;;2.10;99.90;;;;;;5073090;28;20524;-77
2023/04/10 01:49:15;;;;;;;5.13;3.50;;;2.10;99.90;;;;;;5073800;28;20537;-77
2023/04/10 01:51:42;;;;;;;8.50;3.90;;;2.00;99.90;;;;;;5068688;28;20538;-76
2023/04/10 01:54:08;;;;;;;10.53;4.60;;;2.00;99.90;;;;;;5070152;28;20420;-77
2023/04/10 01:56:34;;;;;;;7.60;3.47;;;2.00;99.90;;;;;;5072158;28;20427;-75
2023/04/10 01:59:02;;;;;;;8.37;3.20;;;2.00;99.90;;;;;;5071211;28;20423;-75
2023/04/10 02:01:28;;;;;;;8.33;3.57;;;2.00;99.90;;;;;;5070515;28;20465;-72
2023/04/10 02:03:54;;;;;;;17.57;4.00;;;2.00;99.90;;;;;;5072876;28;20419;-77
2023/04/10 02:06:36;;;;;;;8.70;3.73;;;1.90;99.90;;;;;;5070703;28;20257;-75
2023/04/10 02:09:30;;;;;;;5.53;2.83;;;1.90;99.90;;;;;;5068713;28;20173;-75
2023/04/10 02:12:05;;;;;;;8.17;3.47;;;1.90;99.90;;;;;;5070677;28;20554;-77
2023/04/10 02:14:35;;;;;;;5.90;3.17;;;1.80;99.90;;;;;;5070967;28;20419;-75
2023/04/10 02:17:01;;;;;;;7.83;4.03;;;1.70;99.90;;;;;;5075036;28;20415;-76
2023/04/10 02:19:29;;;;;;;7.63;3.60;;;1.70;99.90;;;;;;5070350;28;20427;-75
2023/04/10 02:21:55;;;;;;;8.17;3.90;;;1.70;99.90;;;;;;5071031;28;20451;-75
2023/04/10 02:24:21;;;;;;;5.60;3.80;;;1.70;99.90;;;;;;5073147;28;20419;-74
2023/04/10 02:26:49;;;;;;;8.03;3.50;;;1.70;99.90;;;;;;5068361;28;20962;-75
2023/04/10 02:29:15;;;;;;;8.20;3.77;;;1.60;99.90;;;;;;5069484;28;20820;-75
2023/04/10 02:31:41;;;;;;;10.90;4.93;;;1.80;99.90;;;;;;5069552;28;20458;-76
2023/04/10 02:34:07;;;;;;;10.37;4.60;;;1.70;99.90;;;;;;5069866;28;20481;-75
2023/04/10 02:36:35;;;;;;;8.90;3.83;;;1.70;99.90;;;;;;5068229;28;20423;-75
2023/04/10 02:39:01;;;;;;;5.37;2.90;;;1.70;99.90;;;;;;5069601;28;20426;-76
2023/04/10 02:41:26;;;;;;;8.57;3.83;;;1.60;99.90;;;;;;5069033;28;20884;-75
2023/04/10 02:43:52;;;;;;;11.73;4.40;;;1.60;99.90;;;;;;5072129;28;20181;-75
2023/04/10 02:46:17;;;;;;;10.33;4.57;;;1.60;99.90;;;;;;5070758;28;20192;-75
2023/04/10 02:48:44;;;;;;;11.90;4.90;;;1.60;99.90;;;;;;5072194;28;20185;-75
2023/04/10 02:51:09;;;;;;;6.37;3.23;;;1.60;99.90;;;;;;5070305;28;20205;-79
2023/04/10 02:53:35;;;;;;;6.60;3.63;;;1.60;99.90;;;;;;5070014;28;20470;-75
2023/04/10 02:56:01;;;;;;;8.80;3.80;;;1.60;99.90;;;;;;5071240;28;20185;-75
2023/04/10 02:58:29;;;;;;;10.17;3.37;;;1.50;99.90;;;;;;5070474;28;20181;-75
2023/04/10 03:00:56;;;;;;;5.00;2.90;;;1.50;99.90;;;;;;5069404;28;20177;-79
2023/04/10 03:03:22;;;;;;;6.70;3.70;;;1.50;99.90;;;;;;5069229;28;20966;-75
2023/04/10 03:05:48;;;;;;;8.20;4.27;;;1.40;99.90;;;;;;5071486;28;20455;-79
2023/04/10 03:08:14;;;;;;;9.60;4.40;;;1.40;99.90;;;;;;5069956;28;20170;-78
2023/04/10 03:10:47;;;;;;;5.93;3.07;;;1.50;99.90;;;;;;5068109;28;20432;-75
2023/04/10 03:13:13;;;;;;;8.00;4.80;;;1.50;99.90;;;;;;5067030;28;20522;-76
2023/04/10 03:15:39;;;;;;;6.03;3.80;;;1.40;99.90;;;;;;5085516;28;20506;-77
2023/04/10 03:18:05;;;;;;;7.40;3.30;;;1.40;99.90;;;;;;5067919;28;20506;-76
2023/04/10 03:20:36;;;;;;;4.80;2.80;;;1.40;99.90;;;;;;5068040;28;20569;-75
2023/04/10 03:23:02;;;;;;;7.53;3.47;;;1.40;99.90;;;;;;5068061;28;20197;-75
2023/04/10 03:25:28;;;;;;;9.50;3.80;;;1.40;99.90;;;;;;5068805;28;20532;-77
2023/04/10 03:27:54;;;;;;;9.50;3.93;;;1.40;99.90;;;;;;5068460;28;20918;-75
2023/04/10 03:30:20;;;;;;;5.43;3.60;;;1.40;99.90;;;;;;5083993;28;20204;-75
2023/04/10 03:32:45;;;;;;;8.37;3.53;;;1.30;99.90;;;;;;5067899;28;20208;-78
2023/04/10 03:35:11;;;;;;;6.33;3.13;;;1.30;99.90;;;;;;5065621;28;20166;-76
2023/04/10 03:37:37;;;;;;;8.33;4.10;;;1.30;99.90;;;;;;5067880;28;20177;-75
2023/04/10 03:40:07;;;;;;;11.33;4.90;;;1.30;99.90;;;;;;5068649;28;20200;-79
2023/04/10 03:42:33;;;;;;;8.13;3.90;;;1.40;99.90;;;;;;5067786;28;20197;-76
2023/04/10 03:45:01;;;;;;;9.70;4.20;;;1.40;99.90;;;;;;5068447;28;20423;-75
2023/04/10 03:47:27;;;;;;;7.20;3.83;;;1.40;99.90;;;;;;5065521;28;20428;-75
2023/04/10 03:49:52;;;;;;;12.73;3.67;;;1.40;99.90;;;;;;5068686;28;20443;-75
2023/04/10 03:52:19;;;;;;;9.27;3.60;;;1.40;99.90;;;;;;5067574;28;20228;-75
2023/04/10 03:54:44;;;;;;;8.43;4.33;;;1.30;99.90;;;;;;5070014;28;20179;-76
2023/04/10 03:57:10;;;;;;;7.27;4.10;;;1.20;99.90;;;;;;5068583;28;20430;-77
2023/04/10 03:59:36;;;;;;;9.57;3.40;;;1.20;99.90;;;;;;5067400;28;20193;-75
2023/04/10 04:02:01;;;;;;;6.03;3.13;;;1.30;99.90;;;;;;5067634;28;20390;-75
2023/04/10 04:04:27;;;;;;;15.17;4.10;;;1.30;99.90;;;;;;5068357;28;20656;-76
2023/04/10 04:06:52;;;;;;;7.47;3.23;;;1.40;99.90;;;;;;5068870;28;20260;-75
2023/04/10 04:09:18;;;;;;;5.87;3.50;;;1.30;99.90;;;;;;5067869;28;20545;-75
2023/04/10 04:11:44;;;;;;;9.20;4.00;;;1.30;99.90;;;;;;5068602;28;20586;-76
2023/04/10 04:14:10;;;;;;;7.90;3.67;;;1.30;99.90;;;;;;5066147;28;20680;-76
2023/04/10 04:16:35;;;;;;;8.20;4.73;;;1.20;99.90;;;;;;5070126;28;20230;-75
2023/04/10 04:19:01;;;;;;;8.40;4.17;;;1.20;99.90;;;;;;5067920;28;20658;-77
2023/04/10 04:21:26;;;;;;;9.33;4.13;;;1.30;99.90;;;;;;5083693;28;20721;-75
2023/04/10 04:23:52;;;;;;;7.63;4.20;;;1.40;99.90;;;;;;5064182;28;20185;-75
2023/04/10 04:26:18;;;;;;;5.03;2.77;;;1.40;99.90;;;;;;5067789;28;20205;-76
2023/04/10 04:28:43;;;;;;;11.47;4.43;;;1.50;99.90;;;;;;5066627;28;20264;-76
2023/04/10 04:31:09;;;;;;;7.37;3.10;;;1.40;99.90;;;;;;5069379;28;20188;-75
2023/04/10 04:33:34;;;;;;;7.70;3.50;;;1.40;99.90;;;;;;5065567;28;20236;-75
2023/04/10 04:36:00;;;;;;;6.83;3.30;;;1.30;99.90;;;;;;5068147;28;20650;-78
2023/04/10 04:38:26;;;;;;;7.00;3.73;;;1.20;99.90;;;;;;5065563;28;20210;-78
2023/04/10 04:40:51;;;;;;;7.30;3.80;;;1.20;99.90;;;;;;5066462;28;20212;-76
2023/04/10 04:43:17;;;;;;;7.40;3.83;;;1.10;99.90;;;;;;5065685;28;20346;-77
2023/04/10 04:45:42;;;;;;;9.10;3.77;;;1.10;99.90;;;;;;5068382;28;20205;-75
2023/04/10 04:48:08;;;;;;;11.87;3.40;;;1.10;99.90;;;;;;5066626;28;20226;-79
2023/04/10 04:50:34;;;;;;;4.90;3.30;;;1.30;99.90;;;;;;5067014;28;20191;-77
2023/04/10 04:52:59;;;;;;;7.00;3.80;;;1.20;99.90;;;;;;5067616;28;20209;-75
2023/04/10 04:55:25;;;;;;;6.07;2.90;;;1.20;99.90;;;;;;5067920;28;20185;-75
2023/04/10 04:57:51;;;;;;;9.93;3.60;;;1.10;99.90;;;;;;5066389;28;20543;-75
2023/04/10 05:00:16;;;;;;;7.97;4.47;;;1.20;99.90;;;;;;5063672;28;20255;-75
2023/04/10 05:02:42;;;;;;;8.33;3.83;;;1.20;99.90;;;;;;5065531;28;20490;-75
2023/04/10 05:05:08;;;;;;;8.30;2.97;;;1.20;99.90;;;;;;5069689;28;20690;-76
2023/04/10 05:07:33;;;;;;;7.63;3.33;;;1.20;99.90;;;;;;5071419;28;20177;-77
2023/04/10 05:09:59;;;;;;;7.27;3.00;;;1.20;99.90;;;;;;5071076;28;20211;-77
2023/04/10 05:12:25;;;;;;;6.90;3.20;;;1.20;99.90;;;;;;5069535;28;20237;-75
2023/04/10 05:14:50;;;;;;;7.70;3.17;;;1.20;99.90;;;;;;5070151;28;20779;-73
2023/04/10 05:17:16;;;;;;;11.30;3.63;;;1.20;99.90;;;;;;5070505;28;20173;-75
2023/04/10 05:19:42;;;;;;;5.97;2.90;;;1.30;99.90;;;;;;5069638;28;20203;-78
2023/04/10 05:22:07;;;;;;;4.80;3.10;;;1.30;99.90;;;;;;5069494;28;20699;-79
2023/04/10 05:24:33;;;;;;;7.23;2.70;;;1.30;99.90;;;;;;5070541;28;20434;-74
2023/04/10 05:26:59;;;;;;;8.00;3.43;;;1.40;99.90;;;;;;5071421;28;20611;-76
2023/04/10 05:29:25;;;;;;;5.70;2.57;;;1.40;99.90;;;;;;5070317;28;20173;-76
2023/04/10 05:31:51;;;;;;;8.03;3.50;;;1.50;99.90;;;;;;5068245;28;20459;-75
2023/04/10 05:34:16;;;;;;;4.20;2.60;;;1.50;99.90;;;;;;5070816;28;20173;-75
2023/04/10 05:36:42;;;;;;;7.83;3.53;;;1.60;99.90;;;;;;5070176;28;20173;-79
2023/04/10 05:39:08;;;;;;;8.90;3.47;;;1.60;99.90;;;;;;5068970;28;20698;-75
2023/04/10 05:41:33;;;;;;;7.80;3.33;;;1.80;99.90;;;;;;5069647;28;20180;-79
2023/04/10 05:43:59;;;;;;;9.83;3.90;;;1.90;99.90;;;;;;5070738;28;20271;-75
2023/04/10 05:46:25;;;;;;;6.63;3.90;;;2.00;99.90;;;;;;5068362;28;20229;-76
2023/04/10 05:48:51;;;;;;;11.20;3.17;;;2.00;99.90;;;;;;5071565;28;20726;-75
2023/04/10 05:51:17;;;;;;;6.10;3.20;;;2.10;99.90;;;;;;5067096;28;20292;-75
2023/04/10 05:53:43;;;;;;;7.17;3.90;;;2.20;99.90;;;;;;5067653;28;20517;-76
2023/04/10 05:56:09;;;;;;;21.93;9.20;;;2.30;99.90;;;;;;5068763;28;20189;-73
2023/04/10 05:58:34;;;;;;;19.23;9.00;;;2.40;99.90;;;;;;5063515;28;20431;-76
2023/04/10 06:01:00;;;;;;;14.50;6.57;;;2.50;99.90;;;;;;5067133;28;20202;-74
2023/04/10 06:03:29;;;;;;;11.40;5.27;;;2.50;99.90;;;;;;5067618;28;20601;-78
2023/04/10 06:05:56;;;;;;;8.30;4.10;;;2.70;99.90;;;;;;5069237;28;20201;-75
2023/04/10 06:08:21;;;;;;;6.33;2.87;;;2.80;99.90;;;;;;5069075;28;20424;-77
2023/04/10 06:10:47;;;;;;;9.60;4.67;;;2.90;99.90;;;;;;5070322;28;20484;-74
2023/04/10 06:13:16;;;;;;;12.17;4.37;;;3.00;99.90;;;;;;5083850;28;20704;-77
2023/04/10 06:15:41;;;;;;;6.67;4.13;;;3.00;99.90;;;;;;5069680;28;20189;-74
2023/04/10 06:18:07;;;;;;;7.70;4.23;;;3.10;99.90;;;;;;5070454;28;20438;-75
2023/04/10 06:20:33;;;;;;;11.80;5.77;;;3.10;99.90;;;;;;5077338;28;20213;-77
2023/04/10 06:22:59;;;;;;;16.17;7.80;;;3.20;99.90;;;;;;5079390;28;20460;-74
2023/04/10 06:25:25;;;;;;;12.57;6.80;;;3.30;99.90;;;;;;5082650;28;20217;-82
2023/04/10 06:27:51;;;;;;;13.03;7.07;;;3.40;99.90;;;;;;5092963;28;20219;-82
2023/04/10 06:30:16;;;;;;;13.80;6.30;;;3.40;99.90;;;;;;5093620;28;21012;-82
2023/04/10 06:32:42;;;;;;;10.97;5.83;;;3.50;99.90;;;;;;5093597;28;20208;-81
2023/04/10 06:35:08;;;;;;;12.30;5.63;;;3.60;99.90;;;;;;5095523;28;20170;-81
2023/04/10 06:37:34;;;;;;;12.13;6.63;;;3.60;99.90;;;;;;5090331;28;20264;-78
2023/04/10 06:40:07;;;;;;;12.53;6.43;;;3.70;99.90;;;;;;5067640;28;20504;-79
2023/04/10 06:42:33;;;;;;;14.20;4.90;;;3.90;99.90;;;;;;5067176;28;20207;-77
2023/04/10 06:44:59;;;;;;;11.23;5.43;;;4.00;99.90;;;;;;5069139;28;20450;-78
2023/04/10 06:47:25;;;;;;;6.70;4.40;;;4.10;99.90;;;;;;5067090;28;20462;-75
2023/04/10 06:49:51;;;;;;;8.73;4.77;;;4.30;99.90;;;;;;5069746;28;20235;-76
2023/04/10 06:52:17;;;;;;;12.30;5.90;;;4.30;99.90;;;;;;5068225;28;20200;-79
2023/04/10 06:54:42;;;;;;;9.50;5.90;;;4.50;99.90;;;;;;5068595;28;20177;-76
2023/04/10 06:57:08;;;;;;;13.57;5.87;;;4.60;99.90;;;;;;5068204;28;20454;-77
2023/04/10 06:59:34;;;;;;;11.97;5.70;;;4.80;99.90;;;;;;5069199;28;20228;-79
2023/04/10 07:02:01;;;;;;;8.70;4.23;;;5.20;99.90;;;;;;5068146;28;20256;-78
2023/04/10 07:04:27;;;;;;;13.93;4.63;;;5.40;99.90;;;;;;5068759;28;20581;-76
2023/04/10 07:06:53;;;;;;;7.97;3.70;;;5.90;99.90;;;;;;5067098;28;21096;-76
2023/04/10 07:09:19;;;;;;;11.97;3.90;;;6.20;99.90;;;;;;5067671;28;20185;-76
2023/04/10 07:11:44;;;;;;;4.83;3.23;;;6.30;99.90;;;;;;5068595;28;20570;-79
2023/04/10 07:14:10;;;;;;;8.37;3.73;;;6.80;99.90;;;;;;5069061;28;20447;-76
2023/04/10 07:16:36;;;;;;;5.63;3.03;;;7.30;99.90;;;;;;5068536;28;20334;-76
2023/04/10 07:19:02;;;;;;;6.10;3.07;;;7.80;98.70;;;;;;5062491;28;20264;-77
2023/04/10 07:21:27;;;;;;;6.27;2.70;;;8.40;97.70;;;;;;5068533;28;20185;-74
2023/04/10 07:23:53;;;;;;;2.80;1.97;;;8.80;95.70;;;;;;5065596;28;20181;-77
2023/04/10 07:26:19;;;;;;;4.33;2.03;;;9.20;93.00;;;;;;5068399;28;20249;-77
2023/04/10 07:28:45;;;;;;;3.57;1.83;;;9.90;91.80;;;;;;5065036;28;20482;-77
2023/04/10 07:31:11;;;;;;;4.60;2.07;;;10.90;88.60;;;;;;5068588;28;20335;-76
2023/04/10 07:33:37;;;;;;;6.43;1.70;;;11.80;83.30;;;;;;5069039;28;20771;-77
2023/04/10 07:36:04;;;;;;;3.50;1.80;;;12.50;79.60;;;;;;5069664;28;20275;-77
2023/04/10 07:38:30;;;;;;;4.60;2.17;;;13.10;77.40;;;;;;5068660;28;20420;-80
2023/04/10 07:40:57;;;;;;;3.73;2.00;;;14.10;73.20;;;;;;5067916;28;20451;-76
2023/04/10 07:43:23;;;;;;;3.57;1.80;;;14.00;73.50;;;;;;5065223;28;20497;-77
2023/04/10 07:45:48;;;;;;;3.77;2.30;;;14.90;72.30;;;;;;5069028;28;20491;-79
2023/04/10 07:48:14;;;;;;;4.37;1.77;;;15.30;68.60;;;;;;5071200;28;20234;-79
2023/04/10 07:50:40;;;;;;;3.37;1.80;;;14.80;68.70;;;;;;5071441;28;20553;-79
2023/04/10 07:53:08;;;;;;;3.83;1.60;;;14.50;69.00;;;;;;5068811;28;20209;-78
2023/04/10 07:55:38;;;;;;;3.33;1.73;;;14.90;69.40;;;;;;5071164;28;20241;-79
2023/04/10 07:58:04;;;;;;;4.20;1.90;;;14.60;66.90;;;;;;5071092;28;20428;-74
2023/04/10 08:00:31;;;;;;;3.53;2.10;;;14.10;67.00;;;;;;5070412;28;20442;-75
2023/04/10 08:02:56;;;;;;;2.43;1.47;;;14.30;68.30;;;;;;5069497;28;20457;-79
2023/04/10 08:05:22;;;;;;;3.60;1.67;;;14.20;66.80;;;;;;5069161;28;20804;-77
2023/04/10 08:07:47;;;;;;;2.60;1.60;;;13.90;66.40;;;;;;5066232;28;20184;-75
2023/04/10 08:10:13;;;;;;;2.73;1.40;;;13.80;66.70;;;;;;5061959;28;20192;-76
2023/04/10 08:12:39;;;;;;;2.83;1.50;;;14.00;68.30;;;;;;5068735;28;20246;-78
2023/04/10 08:15:05;;;;;;;3.77;1.53;;;14.30;67.10;;;;;;5067342;28;20695;-76
2023/04/10 08:17:31;;;;;;;3.20;1.50;;;14.80;65.60;;;;;;5067396;28;20710;-75
2023/04/10 08:19:56;;;;;;;4.00;1.40;;;15.00;64.20;;;;;;5068050;28;20427;-76
2023/04/10 08:22:22;;;;;;;5.80;2.03;;;15.30;64.70;;;;;;5066808;28;20200;-76
2023/04/10 08:24:47;;;;;;;4.13;1.80;;;15.30;64.40;;;;;;5067419;28;20559;-79
2023/04/10 08:27:14;;;;;;;2.33;1.30;;;15.40;62.30;;;;;;5067352;28;20222;-74
2023/04/10 08:29:40;;;;;;;3.73;1.93;;;15.20;63.60;;;;;;5067799;28;20172;-76
2023/04/10 08:32:06;;;;;;;3.20;1.67;;;15.20;61.60;;;;;;5064976;28;21042;-77
2023/04/10 08:34:32;;;;;;;3.70;2.07;;;15.30;63.50;;;;;;5067850;28;20563;-78
2023/04/10 08:36:57;;;;;;;3.73;1.63;;;15.00;62.00;;;;;;5065588;28;20201;-76
2023/04/10 08:39:23;;;;;;;2.40;1.57;;;14.90;62.30;;;;;;5069484;28;20223;-77
2023/04/10 08:41:49;;;;;;;4.17;1.87;;;14.90;61.90;;;;;;5067388;28;20654;-76
2023/04/10 08:44:15;;;;;;;2.70;1.47;;;14.60;62.60;;;;;;5070037;28;20181;-78
2023/04/10 08:46:42;;;;;;;2.23;1.13;;;14.80;63.00;;;;;;5068670;28;20273;-78
2023/04/10 08:49:14;;;;;;;4.37;1.43;;;14.90;64.70;;;;;;5062490;28;20490;-76
2023/04/10 08:51:47;;;;;;;3.03;1.53;;;14.80;61.50;;;;;;5066189;28;21069;-76
2023/04/10 08:54:20;;;;;;;3.17;1.50;;;15.00;63.40;;;;;;5066945;28;20442;-77
2023/04/10 08:56:51;;;;;;;4.17;1.77;;;15.20;62.70;;;;;;5064917;28;20474;-79
2023/04/10 08:59:17;;;;;;;4.73;1.60;;;15.50;62.10;;;;;;5067901;28;20443;-75
2023/04/10 09:01:43;;;;;;;2.93;1.50;;;15.30;61.10;;;;;;5065300;28;20471;-77
2023/04/10 09:04:11;;;;;;;3.57;1.27;;;15.40;60.00;;;;;;5068867;28;20557;-78
2023/04/10 09:06:37;;;;;;;2.20;1.50;;;15.60;59.90;;;;;;5068183;28;20250;-78
2023/04/10 09:09:04;;;;;;;2.37;1.20;;;15.70;61.30;;;;;;5069302;28;20412;-76
2023/04/10 09:11:55;;;;;;;4.20;1.53;;;16.00;59.30;;;;;;5068654;28;20170;-76
2023/04/10 09:14:22;;;;;;;3.20;1.57;;;16.20;60.40;;;;;;5067242;28;20423;-76
2023/04/10 09:16:48;;;;;;;2.57;1.37;;;16.50;61.30;;;;;;5069756;28;20407;-77
2023/04/10 09:19:31;;;;;;;3.30;1.20;;;16.60;59.40;;;;;;5069421;28;20434;-76
2023/04/10 09:21:57;;;;;;;2.73;1.57;;;16.40;57.70;;;;;;5065495;28;20462;-77
2023/04/10 09:24:23;;;;;;;3.40;2.00;;;16.00;57.90;;;;;;5066761;28;20438;-76
2023/04/10 09:26:49;;;;;;;2.80;1.60;;;16.10;58.20;;;;;;5069035;28;20204;-76
2023/04/10 09:29:17;;;;;;;3.13;1.43;;;16.00;57.80;;;;;;5061920;28;20951;-78
2023/04/10 09:31:43;;;;;;;2.40;1.17;;;16.10;58.20;;;;;;5067445;28;20754;-75
2023/04/10 09:34:11;;;;;;;4.57;1.13;;;16.10;58.70;;;;;;5065003;28;20435;-75
2023/04/10 09:36:37;;;;;;;1.80;1.10;;;16.00;58.20;;;;;;5067904;28;20716;-76
2023/04/10 09:39:04;;;;;;;3.40;1.10;;;16.00;58.30;;;;;;5068004;28;20435;-75
2023/04/10 09:41:30;;;;;;;2.00;1.07;;;16.00;58.70;;;;;;5068300;28;20474;-75
2023/04/10 09:44:06;;;;;;;2.00;1.00;;;16.50;58.80;;;;;;5067545;28;20424;-76
2023/04/10 09:46:32;;;;;;;1.70;0.80;;;16.70;58.20;;;;;;5066584;28;20451;-77
2023/04/10 09:49:01;;;;;;;3.07;1.10;;;16.50;58.80;;;;;;5064385;28;20487;-75
2023/04/10 09:51:29;;;;;;;2.90;1.43;;;16.50;58.40;;;;;;5063015;28;20786;-77
2023/04/10 09:53:54;;;;;;;3.90;1.33;;;16.70;58.10;;;;;;5068725;28;20423;-75
2023/04/10 09:56:21;;;;;;;1.80;0.93;;;16.70;57.20;;;;;;5086412;28;20514;-76
2023/04/10 09:58:48;;;;;;;3.03;1.60;;;16.70;58.00;;;;;;5068069;28;20196;-77
2023/04/10 10:01:14;;;;;;;2.60;1.20;;;16.70;58.40;;;;;;5067718;28;20423;-77
2023/04/10 10:03:40;;;;;;;1.73;0.93;;;16.50;57.30;;;;;;5069297;28;20848;-75
2023/04/10 10:06:08;;;;;;;3.60;1.53;;;16.30;56.80;;;;;;5069437;28;20696;-75
2023/04/10 10:08:35;;;;;;;1.90;0.83;;;16.00;54.60;;;;;;5068196;28;20416;-78
2023/04/10 10:11:02;;;;;;;1.63;0.80;;;15.70;54.20;;;;;;5069058;28;20420;-74
2023/04/10 10:13:52;;;;;;;1.80;1.00;;;15.60;55.60;;;;;;5065082;28;20459;-77
2023/04/10 10:16:23;;;;;;;1.80;0.97;;;15.60;56.10;;;;;;5084578;28;20430;-76
2023/04/10 10:19:07;;;;;;;4.80;0.90;;;15.60;55.60;;;;;;5067498;28;20443;-75
2023/04/10 10:21:33;;;;;;;3.17;1.37;;;15.80;57.00;;;;;;5067576;28;20492;-75
2023/04/10 10:24:01;;;;;;;3.50;1.40;;;16.10;58.50;;;;;;5067731;28;20427;-75
2023/04/10 10:26:29;;;;;;;2.90;1.00;;;16.20;56.80;;;;;;5068982;28;20592;-75
2023/04/10 10:28:56;;;;;;;1.90;1.10;;;16.20;54.80;;;;;;5068359;28;20500;-75
2023/04/10 10:31:24;;;;;;;2.70;1.20;;;16.20;53.30;;;;;;5066639;28;20489;-76
2023/04/10 10:33:51;;;;;;;1.90;0.83;;;16.10;53.90;;;;;;5065710;28;20423;-75
2023/04/10 10:36:18;;;;;;;5.50;1.50;;;15.90;53.00;;;;;;5068108;28;20504;-75
2023/04/10 10:38:53;;;;;;;1.60;0.83;;;16.00;53.40;;;;;;5065086;28;20446;-76
2023/04/10 10:41:37;;;;;;;1.90;1.07;;;16.10;53.80;;;;;;5066621;28;20518;-74
2023/04/10 10:44:10;;;;;;;1.73;0.73;;;16.00;52.90;;;;;;5066033;28;20427;-78
2023/04/10 10:46:48;;;;;;;2.43;0.83;;;16.10;51.80;;;;;;5067915;28;20451;-75
2023/04/10 10:49:13;;;;;;;2.30;1.00;;;15.80;52.90;;;;;;5068305;28;20430;-75
2023/04/10 10:51:50;;;;;;;2.20;1.00;;;15.70;52.40;;;;;;5068785;28;20934;-77
2023/04/10 10:54:29;;;;;;;1.40;0.70;;;16.00;53.70;;;;;;5064614;28;20196;-75
2023/04/10 10:56:55;;;;;;;1.40;0.60;;;16.10;50.20;;;;;;5069087;28;20561;-75
2023/04/10 10:59:42;;;;;;;1.43;0.60;;;16.40;51.60;;;;;;5068617;28;20514;-75
2023/04/10 11:02:11;;;;;;;2.17;0.97;;;16.50;53.00;;;;;;5068103;28;20211;-75
2023/04/10 11:04:47;;;;;;;1.80;0.73;;;16.50;51.70;;;;;;5068278;28;21182;-78
2023/04/10 11:07:14;;;;;;;2.43;0.70;;;16.70;51.70;;;;;;5067263;28;20463;-76
2023/04/10 11:09:53;;;;;;;1.80;0.70;;;16.70;51.90;;;;;;5068675;28;20484;-75
2023/04/10 11:12:23;;;;;;;1.77;0.80;;;16.90;50.90;;;;;;5067583;28;20965;-75
2023/04/10 11:14:59;;;;;;;1.60;0.97;;;16.90;50.10;;;;;;5069198;28;20423;-75
2023/04/10 11:17:48;;;;;;;1.60;0.77;;;16.80;48.80;;;;;;5069421;28;20946;-75
2023/04/10 11:20:15;;;;;;;2.43;0.87;;;16.90;48.10;;;;;;5065626;28;20407;-75
2023/04/10 11:23:06;;;;;;;1.30;0.60;;;17.20;49.10;;;;;;5067415;28;20439;-75
2023/04/10 11:25:54;;;;;;;1.67;0.83;;;17.10;50.50;;;;;;5067974;28;20500;-78
2023/04/10 11:28:40;;;;;;;1.30;0.50;;;17.10;46.70;;;;;;5068695;28;20447;-76
2023/04/10 11:31:21;;;;;;;2.67;1.10;;;17.10;46.90;;;;;;5068638;28;20443;-75
2023/04/10 11:34:00;;;;;;;1.40;0.60;;;17.20;48.60;;;;;;5068427;28;20431;-76
2023/04/10 11:36:26;;;;;;;3.20;1.00;;;17.40;46.70;;;;;;5067818;28;20613;-75
2023/04/10 11:38:55;;;;;;;1.70;0.70;;;17.50;46.50;;;;;;5068514;28;20427;-75
2023/04/10 11:41:26;;;;;;;1.83;0.60;;;17.70;47.40;;;;;;5069655;28;20514;-75
2023/04/10 11:43:52;;;;;;;1.30;0.50;;;17.50;46.70;;;;;;5068180;28;20699;-75
2023/04/10 11:46:18;;;;;;;1.50;0.70;;;17.60;47.30;;;;;;5068426;28;20950;-75
2023/04/10 11:48:43;;;;;;;1.43;0.60;;;17.90;46.80;;;;;;5068036;28;20260;-77
2023/04/10 11:51:11;;;;;;;1.20;0.50;;;17.80;44.00;;;;;;5067458;28;20822;-75
2023/04/10 11:53:37;;;;;;;2.00;0.87;;;17.80;44.70;;;;;;5067936;28;20956;-75
2023/04/10 11:56:06;;;;;;;1.80;0.70;;;17.90;45.60;;;;;;5067774;28;20433;-75
2023/04/10 11:58:32;;;;;;;1.90;0.73;;;18.10;45.90;;;;;;5063448;28;20446;-76
2023/04/10 12:01:02;;;;;;;1.80;0.70;;;18.20;46.10;;;;;;5065657;28;20455;-76
2023/04/10 12:03:35;;;;;;;1.87;0.73;;;18.30;47.90;;;;;;5065283;28;20292;-76
2023/04/10 12:06:01;;;;;;;5.73;1.10;;;18.00;47.00;;;;;;5067268;28;20500;-75
2023/04/10 12:08:34;;;;;;;2.00;1.00;;;18.10;47.80;;;;;;5069553;28;20473;-78
2023/04/10 12:11:01;;;;;;;1.60;0.57;;;18.10;47.20;;;;;;5069138;28;20430;-79
2023/04/10 12:13:28;;;;;;;1.63;0.80;;;18.00;47.30;;;;;;5068847;28;20960;-75
2023/04/10 12:15:56;;;;;;;2.00;0.97;;;18.00;47.80;;;;;;5081588;28;20442;-77
2023/04/10 12:18:22;;;;;;;1.27;0.50;;;18.10;45.80;;;;;;5084424;28;20428;-78
2023/04/10 12:20:50;;;;;;;1.43;0.70;;;18.10;45.70;;;;;;5089661;28;20473;-80
2023/04/10 12:23:17;;;;;;;1.70;0.70;;;18.30;47.10;;;;;;5091747;28;20196;-77
2023/04/10 12:25:42;;;;;;;2.00;0.70;;;18.40;45.10;;;;;;5087111;28;20443;-81
2023/04/10 12:28:08;;;;;;;1.97;0.90;;;18.40;43.50;;;;;;5099340;28;20453;-82
2023/04/10 12:30:34;;;;;;;1.30;0.60;;;18.10;42.30;;;;;;5094345;28;20212;-79
2023/04/10 12:33:04;;;;;;;1.20;0.40;;;18.10;43.70;;;;;;5087079;28;20223;-75
2023/04/10 12:35:41;;;;;;;1.47;0.67;;;18.00;43.80;;;;;;5077947;28;20479;-78
2023/04/10 12:38:07;;;;;;;2.13;0.80;;;18.10;45.00;;;;;;5078728;28;20433;-75
2023/04/10 12:40:32;;;;;;;4.80;0.80;;;18.10;43.80;;;;;;5074128;28;20939;-78
2023/04/10 12:42:58;;;;;;;1.40;0.60;;;18.20;44.80;;;;;;5073890;28;20287;-78
2023/04/10 12:45:50;;;;;;;1.37;0.57;;;18.20;44.70;;;;;;5072875;28;20669;-75
2023/04/10 12:48:22;;;;;;;1.20;0.50;;;18.20;44.50;;;;;;5070141;28;20238;-75
2023/04/10 12:50:48;;;;;;;1.53;0.60;;;18.20;44.10;;;;;;5072761;28;20495;-76
2023/04/10 12:53:14;;;;;;;1.30;0.50;;;18.20;45.00;;;;;;5075089;28;20514;-79
2023/04/10 12:55:41;;;;;;;1.63;0.80;;;18.30;45.50;;;;;;5073391;28;20181;-75